Time;durP1;ratioP1;P1;durP2;ratioP2;P2;SDS_P1;SDS_P2;PMS_P1;PMS_P2;Temp;Humidity;BMP_temperature;BMP_pressure;BME280_temperature;BME280_humidity;BME280_pressure;Samples;Min_cycle;Max_cycle;Signal;HPM_P1;HPM_P2
2022/10/14 00:01:03;;;;;;;;;;;19.20;65.30;;;;;;4991554;28;20317;-86
2022/10/14 00:03:29;;;;;;;;;;;19.20;65.30;;;;;;4975360;28;20428;-86
2022/10/14 00:05:54;;;;;;;;;;;19.20;65.40;;;;;;4974614;28;19909;-86
2022/10/14 00:08:20;;;;;;;;;;;19.20;65.30;;;;;;4992390;28;20298;-85
2022/10/14 00:10:45;;;;;;;;;;;19.20;65.30;;;;;;4991422;28;19949;-85
2022/10/14 00:13:11;;;;;;;;;;;19.20;65.30;;;;;;4990809;28;19960;-87
2022/10/14 00:15:40;;;;;;;;;;;19.20;65.40;;;;;;4973839;28;20007;-85
2022/10/14 00:18:06;;;;;;;;;;;19.20;65.40;;;;;;4992107;28;19945;-86
2022/10/14 00:20:31;;;;;;;;;;;19.20;65.30;;;;;;4991532;28;20280;-85
2022/10/14 00:22:57;;;;;;;;;;;19.20;65.40;;;;;;4974169;28;20461;-88
2022/10/14 00:25:24;;;;;;;;;;;19.20;65.50;;;;;;4991363;28;19917;-87
2022/10/14 00:27:50;;;;;;;;;;;19.20;65.40;;;;;;4974097;28;19972;-85
2022/10/14 00:30:16;;;;;;;;;;;19.20;65.40;;;;;;4992434;28;19921;-85
2022/10/14 00:32:41;;;;;;;;;;;19.30;65.40;;;;;;4973962;28;20012;-87
2022/10/14 00:35:07;;;;;;;;;;;19.20;65.40;;;;;;4973911;28;19913;-85
2022/10/14 00:37:32;;;;;;;;;;;19.20;65.30;;;;;;4991381;28;19921;-86
2022/10/14 00:39:58;;;;;;;;;;;19.20;65.30;;;;;;4991973;28;19957;-85
2022/10/14 00:42:26;;;;;;;;;;;19.20;65.30;;;;;;4991242;28;19914;-87
2022/10/14 00:44:59;;;;;;;;;;;19.20;65.30;;;;;;4991510;28;19965;-86
2022/10/14 00:47:25;;;;;;;;;;;19.20;65.30;;;;;;4973673;28;19925;-86
2022/10/14 00:49:50;;;;;;;;;;;19.20;65.40;;;;;;4974023;28;19972;-85
2022/10/14 00:52:17;;;;;;;;;;;19.20;65.30;;;;;;4973641;28;19914;-86
2022/10/14 00:54:46;;;;;;;;;;;19.30;65.30;;;;;;4992086;28;19914;-87
2022/10/14 00:57:12;;;;;;;;;;;19.30;65.30;;;;;;4991025;28;19925;-86
2022/10/14 00:59:38;;;;;;;;;;;19.30;65.20;;;;;;4991255;28;19917;-85
2022/10/14 01:02:03;;;;;;;;;;;19.30;65.20;;;;;;4973665;28;20336;-85
2022/10/14 01:04:29;;;;;;;;;;;19.30;65.10;;;;;;4990143;28;19925;-85
2022/10/14 01:07:13;;;;;;;;;;;19.20;65.10;;;;;;4973346;28;19910;-86
2022/10/14 01:09:42;;;;;;;;;;;19.30;65.20;;;;;;4973094;28;20023;-87
2022/10/14 01:12:10;;;;;;;;;;;19.20;65.10;;;;;;4990904;28;19918;-87
2022/10/14 01:14:58;;;;;;;;;;;19.20;65.20;;;;;;4973186;28;19925;-86
2022/10/14 01:17:45;;;;;;;;;;;19.20;65.20;;;;;;4951479;28;20292;-86
2022/10/14 01:20:18;;;;;;;;;;;19.20;65.10;;;;;;4992057;28;19980;-87
2022/10/14 01:23:02;;;;;;;;;;;19.20;65.10;;;;;;4970950;28;20032;-85
2022/10/14 01:25:32;;;;;;;;;;;19.30;65.10;;;;;;4973680;28;19918;-87
2022/10/14 01:28:16;;;;;;;;;;;19.30;65.10;;;;;;4993797;28;19910;-86
2022/10/14 01:30:44;;;;;;;;;;;19.30;64.90;;;;;;4994426;28;19910;-85
2022/10/14 01:33:15;;;;;;;;;;;19.30;65.00;;;;;;4994359;28;19909;-86
2022/10/14 01:35:47;;;;;;;;;;;19.30;64.90;;;;;;4993396;28;19965;-86
2022/10/14 01:38:12;;;;;;;;;;;19.30;64.90;;;;;;4995169;28;19930;-86
2022/10/14 01:40:51;;;;;;;;;;;19.30;64.80;;;;;;4994086;28;19979;-86
2022/10/14 01:43:18;;;;;;;;;;;19.30;64.90;;;;;;4994286;28;20268;-88
2022/10/14 01:45:45;;;;;;;;;;;19.30;64.90;;;;;;4976177;28;19910;-87
2022/10/14 01:48:12;;;;;;;;;;;19.20;64.80;;;;;;4994134;28;19914;-86
2022/10/14 01:50:38;;;;;;;;;;;19.20;64.70;;;;;;4976506;28;20373;-86
2022/10/14 01:53:06;;;;;;;;;;;19.20;64.60;;;;;;4976255;28;19917;-85
2022/10/14 01:55:35;;;;;;;;;;;19.20;64.60;;;;;;4994081;28;19913;-85
2022/10/14 01:58:01;;;;;;;;;;;19.20;64.60;;;;;;4993808;28;20377;-86
2022/10/14 02:00:27;;;;;;;;;;;19.20;64.60;;;;;;4994353;28;19921;-86
2022/10/14 02:02:52;;;;;;;;;;;19.30;64.60;;;;;;4977941;28;19914;-85
2022/10/14 02:05:20;;;;;;;;;;;19.20;64.60;;;;;;4971501;28;19914;-87
2022/10/14 02:07:48;;;;;;;;;;;19.20;64.60;;;;;;4976578;28;19917;-85
2022/10/14 02:10:19;;;;;;;;;;;19.30;64.60;;;;;;4974606;28;19922;-86
2022/10/14 02:13:04;;;;;;;;;;;19.30;64.60;;;;;;4975395;28;19945;-86
2022/10/14 02:15:29;;;;;;;;;;;19.30;64.60;;;;;;4979223;28;20311;-87
2022/10/14 02:18:16;;;;;;;;;;;19.30;64.60;;;;;;4975584;28;19928;-85
2022/10/14 02:20:42;;;;;;;;;;;19.30;64.50;;;;;;4993566;28;20511;-85
2022/10/14 02:23:11;;;;;;;;;;;19.30;64.60;;;;;;4979834;28;19949;-86
2022/10/14 02:25:38;;;;;;;;;;;19.30;64.60;;;;;;4975244;28;19957;-85
2022/10/14 02:28:07;;;;;;;;;;;19.30;64.60;;;;;;4965876;28;19909;-88
2022/10/14 02:30:35;;;;;;;;;;;19.30;64.60;;;;;;4975815;28;20534;-86
2022/10/14 02:33:03;;;;;;;;;;;19.30;64.60;;;;;;4975087;28;22354;-86
2022/10/14 02:35:30;;;;;;;;;;;19.40;64.60;;;;;;4975891;28;19918;-86
2022/10/14 02:37:56;;;;;;;;;;;19.40;64.60;;;;;;4991984;28;20254;-86
2022/10/14 02:40:32;;;;;;;;;;;19.40;64.50;;;;;;4975671;28;20374;-87
2022/10/14 02:42:57;;;;;;;;;;;19.40;64.40;;;;;;4971201;28;20297;-87
2022/10/14 02:45:24;;;;;;;;;;;19.40;64.50;;;;;;4978002;28;19914;-84
2022/10/14 02:47:49;;;;;;;;;;;19.40;64.40;;;;;;4993089;28;19993;-85
2022/10/14 02:50:17;;;;;;;;;;;19.30;64.40;;;;;;4978441;28;19964;-85
2022/10/14 02:52:43;;;;;;;;;;;19.30;64.30;;;;;;4975487;28;19921;-85
2022/10/14 02:55:09;;;;;;;;;;;19.30;64.40;;;;;;4975421;28;19914;-84
2022/10/14 02:57:34;;;;;;;;;;;19.30;64.40;;;;;;4992504;28;19926;-88
2022/10/14 03:00:00;;;;;;;;;;;19.20;64.40;;;;;;4975786;28;20465;-86
2022/10/14 03:02:25;;;;;;;;;;;19.20;64.40;;;;;;4978689;28;19922;-85
2022/10/14 03:04:51;;;;;;;;;;;19.20;64.50;;;;;;4969431;28;20012;-86
2022/10/14 03:07:16;;;;;;;;;;;19.20;64.50;;;;;;4970006;28;20016;-86
2022/10/14 03:09:42;;;;;;;;;;;19.20;64.50;;;;;;4987849;28;19924;-87
2022/10/14 03:12:07;;;;;;;;;;;19.20;64.60;;;;;;4972023;28;19972;-86
2022/10/14 03:14:33;;;;;;;;;;;19.20;64.60;;;;;;4989047;28;19914;-87
2022/10/14 03:16:58;;;;;;;;;;;19.20;64.60;;;;;;4973310;28;20009;-87
2022/10/14 03:19:24;;;;;;;;;;;19.20;64.80;;;;;;4989150;28;19926;-86
2022/10/14 03:21:50;;;;;;;;;;;19.30;64.80;;;;;;4968371;28;19918;-88
2022/10/14 03:24:15;;;;;;;;;;;19.30;64.70;;;;;;4974128;28;19921;-88
2022/10/14 03:26:41;;;;;;;;;;;19.30;64.70;;;;;;4984753;28;20458;-86
2022/10/14 03:29:06;;;;;;;;;;;19.30;64.60;;;;;;4968399;28;20016;-88
2022/10/14 03:31:32;;;;;;;;;;;19.30;64.70;;;;;;4991906;28;19918;-86
2022/10/14 03:33:58;;;;;;;;;;;19.30;64.50;;;;;;4973748;28;19914;-87
2022/10/14 03:36:23;;;;;;;;;;;19.30;64.50;;;;;;4974677;28;20532;-86
2022/10/14 03:38:49;;;;;;;;;;;19.20;64.50;;;;;;4974721;28;19972;-84
2022/10/14 03:41:17;;;;;;;;;;;19.30;64.60;;;;;;4992356;28;19918;-86
2022/10/14 03:43:42;;;;;;;;;;;19.20;64.60;;;;;;4991978;28;19920;-88
2022/10/14 03:46:08;;;;;;;;;;;19.20;64.50;;;;;;4992223;28;20357;-86
2022/10/14 03:48:33;;;;;;;;;;;19.20;64.50;;;;;;4974490;28;20132;-88
2022/10/14 03:50:59;;;;;;;;;;;19.20;64.50;;;;;;4974230;28;19913;-87
2022/10/14 03:53:24;;;;;;;;;;;19.20;64.50;;;;;;4974724;28;20399;-87
2022/10/14 03:55:50;;;;;;;;;;;19.20;64.60;;;;;;4974642;28;19976;-86
2022/10/14 03:58:15;;;;;;;;;;;19.20;64.60;;;;;;4974556;28;19918;-87
2022/10/14 04:00:41;;;;;;;;;;;19.20;64.50;;;;;;4989693;28;19960;-86
2022/10/14 04:03:07;;;;;;;;;;;19.20;64.50;;;;;;4983204;28;19911;-86
2022/10/14 04:05:33;;;;;;;;;;;19.10;64.30;;;;;;4955027;28;19944;-86
2022/10/14 04:07:59;;;;;;;;;;;19.10;64.30;;;;;;4986352;28;20415;-87
2022/10/14 04:10:25;;;;;;;;;;;19.00;64.30;;;;;;4968521;28;19937;-87
2022/10/14 04:12:52;;;;;;;;;;;19.10;64.40;;;;;;4994059;28;19914;-87
2022/10/14 04:15:17;;;;;;;;;;;19.00;64.30;;;;;;4976454;28;20373;-86
2022/10/14 04:17:42;;;;;;;;;;;19.00;64.60;;;;;;4993457;28;19928;-87
2022/10/14 04:20:08;;;;;;;;;;;19.10;64.70;;;;;;4974520;28;19921;-86
2022/10/14 04:22:34;;;;;;;;;;;19.10;64.70;;;;;;4974346;28;19917;-87
2022/10/14 04:24:59;;;;;;;;;;;19.20;64.60;;;;;;4992025;28;20273;-88
2022/10/14 04:27:25;;;;;;;;;;;19.20;64.60;;;;;;4957025;28;19926;-87
2022/10/14 04:29:51;;;;;;;;;;;19.20;64.60;;;;;;4954904;28;19918;-87
2022/10/14 04:32:17;;;;;;;;;;;19.30;64.50;;;;;;4971538;28;19918;-87
2022/10/14 04:34:43;;;;;;;;;;;19.30;64.50;;;;;;4974175;28;19964;-88
2022/10/14 04:37:08;;;;;;;;;;;19.30;64.40;;;;;;4974809;28;19922;-88
2022/10/14 04:39:33;;;;;;;;;;;19.30;64.40;;;;;;4979963;28;19913;-85
2022/10/14 04:41:59;;;;;;;;;;;19.30;64.30;;;;;;4974035;28;19918;-86
2022/10/14 04:44:24;;;;;;;;;;;19.40;64.30;;;;;;4974250;28;19917;-85
2022/10/14 04:46:50;;;;;;;;;;;19.40;64.40;;;;;;4992411;28;19950;-85
2022/10/14 04:49:15;;;;;;;;;;;19.40;64.30;;;;;;4987197;28;19918;-85
2022/10/14 04:51:41;;;;;;;;;;;19.40;64.30;;;;;;4984298;28;20440;-86
2022/10/14 04:54:07;;;;;;;;;;;19.40;64.30;;;;;;4974397;28;19940;-87
2022/10/14 04:56:32;;;;;;;;;;;19.40;64.20;;;;;;4955848;28;19922;-86
2022/10/14 04:58:58;;;;;;;;;;;19.40;64.30;;;;;;4973510;28;20011;-86
2022/10/14 05:01:24;;;;;;;;;;;19.40;64.20;;;;;;4973974;28;19973;-89
2022/10/14 05:03:50;;;;;;;;;;;19.30;64.20;;;;;;4968341;28;19920;-87
2022/10/14 05:06:19;;;;;;;;;;;19.40;64.20;;;;;;4977081;28;19917;-87
2022/10/14 05:08:44;;;;;;;;;;;19.30;64.30;;;;;;4994120;28;19957;-88
2022/10/14 05:11:10;;;;;;;;;;;19.30;64.40;;;;;;4977015;28;19981;-86
2022/10/14 05:13:41;;;;;;;;;;;19.30;64.20;;;;;;4978371;28;19917;-87
2022/10/14 05:16:07;;;;;;;;;;;19.30;64.20;;;;;;4992144;28;19922;-88
2022/10/14 05:18:33;;;;;;;;;;;19.30;64.30;;;;;;4976751;28;20495;-89
2022/10/14 05:21:01;;;;;;;;;;;19.30;64.30;;;;;;4983051;28;19918;-88
2022/10/14 05:23:27;;;;;;;;;;;19.30;64.20;;;;;;4974472;28;19986;-87
2022/10/14 05:25:53;;;;;;;;;;;19.20;64.00;;;;;;4961695;28;19926;-87
2022/10/14 05:28:18;;;;;;;;;;;19.20;64.20;;;;;;4976334;28;19952;-86
2022/10/14 05:30:45;;;;;;;;;;;19.20;64.30;;;;;;4995352;28;19957;-86
2022/10/14 05:33:10;;;;;;;;;;;19.20;64.40;;;;;;4974344;28;20281;-87
2022/10/14 05:35:36;;;;;;;;;;;19.20;64.50;;;;;;4992019;28;19969;-88
2022/10/14 05:38:02;;;;;;;;;;;19.30;64.60;;;;;;4991830;28;20229;-87
2022/10/14 05:40:28;;;;;;;;;;;19.30;64.50;;;;;;4993890;28;19917;-88
2022/10/14 05:42:56;;;;;;;;;;;19.30;64.50;;;;;;4971778;28;19921;-87
2022/10/14 05:45:22;;;;;;;;;;;19.30;64.50;;;;;;4987756;28;19926;-87
2022/10/14 05:47:47;;;;;;;;;;;19.30;64.40;;;;;;4990047;28;19941;-89
2022/10/14 05:50:13;;;;;;;;;;;19.40;64.50;;;;;;4989374;28;20328;-87
2022/10/14 05:52:39;;;;;;;;;;;19.40;64.50;;;;;;4994628;28;19922;-87
2022/10/14 05:55:05;;;;;;;;;;;19.50;64.50;;;;;;4989934;28;19969;-86
2022/10/14 05:57:37;;;;;;;;;;;19.50;64.40;;;;;;4971033;28;20466;-88
2022/10/14 06:00:03;;;;;;;;;;;19.50;64.40;;;;;;4990237;28;19918;-87
2022/10/14 06:02:29;;;;;;;;;;;19.60;64.40;;;;;;4991050;28;20373;-88
2022/10/14 06:04:55;;;;;;;;;;;19.50;64.10;;;;;;4973031;28;19917;-88
2022/10/14 06:07:20;;;;;;;;;;;19.40;64.20;;;;;;4990709;28;19929;-88
2022/10/14 06:09:46;;;;;;;;;;;19.30;64.30;;;;;;4972784;28;20564;-87
2022/10/14 06:12:14;;;;;;;;;;;19.30;64.50;;;;;;4972546;28;20391;-87
2022/10/14 06:14:40;;;;;;;;;;;19.30;64.50;;;;;;4971625;28;19925;-87
2022/10/14 06:17:05;;;;;;;;;;;19.20;64.50;;;;;;4988626;28;19960;-87
2022/10/14 06:19:31;;;;;;;;;;;19.20;64.70;;;;;;4974831;28;19989;-86
2022/10/14 06:21:57;;;;;;;;;;;19.20;64.80;;;;;;4972778;28;20420;-87
2022/10/14 06:24:22;;;;;;;;;;;19.20;64.80;;;;;;4990708;28;20331;-86
2022/10/14 06:26:48;;;;;;;;;;;19.10;64.90;;;;;;4973651;28;20383;-87
2022/10/14 06:29:14;;;;;;;;;;;19.20;64.90;;;;;;4991199;28;19981;-87
2022/10/14 06:31:39;;;;;;;;;;;19.10;64.90;;;;;;4972181;28;19926;-87
2022/10/14 06:34:05;;;;;;;;;;;19.10;64.90;;;;;;4989527;28;20443;-87
2022/10/14 06:36:30;;;;;;;;;;;19.10;64.90;;;;;;4973454;28;20490;-90
2022/10/14 06:38:56;;;;;;;;;;;19.10;65.00;;;;;;4972828;28;19918;-86
2022/10/14 06:41:22;;;;;;;;;;;19.10;65.10;;;;;;4990958;28;19993;-85
2022/10/14 06:43:50;;;;;;;;;;;19.10;65.30;;;;;;4991146;28;19929;-87
2022/10/14 06:46:15;;;;;;;;;;;19.10;65.40;;;;;;4957012;28;20466;-86
2022/10/14 06:48:41;;;;;;;;;;;19.20;65.60;;;;;;4971330;28;19929;-86
2022/10/14 06:51:09;;;;;;;;;;;19.20;65.60;;;;;;4989476;28;19922;-86
2022/10/14 06:53:34;;;;;;;;;;;19.30;65.60;;;;;;4989116;28;19933;-87
2022/10/14 06:56:01;;;;;;;;;;;19.30;65.40;;;;;;4970348;28;19921;-89
2022/10/14 06:58:31;;;;;;;;;;;19.40;65.50;;;;;;4988992;28;19917;-87
2022/10/14 07:01:04;;;;;;;;;;;19.50;65.50;;;;;;4971183;28;20057;-88
2022/10/14 07:03:30;;;;;;;;;;;19.50;65.40;;;;;;4991615;28;19950;-86
2022/10/14 07:05:55;;;;;;;;;;;19.60;65.20;;;;;;4973895;28;19968;-87
2022/10/14 07:08:21;;;;;;;;;;;19.60;65.10;;;;;;4990334;28;19925;-87
2022/10/14 07:10:50;;;;;;;;;;;19.70;65.20;;;;;;4990129;28;19948;-88
2022/10/14 07:13:18;;;;;;;;;;;19.70;65.10;;;;;;4989409;28;20459;-88
2022/10/14 07:15:46;;;;;;;;;;;19.70;65.00;;;;;;4989903;28;19985;-85
2022/10/14 07:18:12;;;;;;;;;;;19.80;65.00;;;;;;4994581;28;20008;-87
2022/10/14 07:20:37;;;;;;;;;;;19.80;64.90;;;;;;4988226;28;20026;-86
2022/10/14 07:23:02;;;;;;;;;;;19.80;64.90;;;;;;4971617;28;19917;-87
2022/10/14 07:25:28;;;;;;;;;;;19.80;65.10;;;;;;4971332;28;20320;-88
2022/10/14 07:27:54;;;;;;;;;;;19.90;65.00;;;;;;4990031;28;19943;-88
2022/10/14 07:30:23;;;;;;;;;;;19.90;65.00;;;;;;4971593;28;19918;-88
2022/10/14 07:32:48;;;;;;;;;;;20.00;65.30;;;;;;4970961;28;19918;-87
2022/10/14 07:35:14;;;;;;;;;;;20.10;65.40;;;;;;4990020;28;19929;-85
2022/10/14 07:37:40;;;;;;;;;;;20.20;65.30;;;;;;4971227;28;19926;-87
2022/10/14 07:40:06;;;;;;;;;;;20.40;65.50;;;;;;4970991;28;19925;-86
2022/10/14 07:42:31;;;;;;;;;;;20.50;65.70;;;;;;4987539;28;19928;-87
2022/10/14 07:44:57;;;;;;;;;;;20.70;66.20;;;;;;4988864;28;20344;-88
2022/10/14 07:47:22;;;;;;;;;;;20.90;66.40;;;;;;4988893;28;20474;-87
2022/10/14 07:49:48;;;;;;;;;;;21.10;66.00;;;;;;4970807;28;20433;-87
2022/10/14 07:52:14;;;;;;;;;;;21.20;65.60;;;;;;4971927;28;19968;-87
2022/10/14 07:54:40;;;;;;;;;;;21.20;65.40;;;;;;4988876;28;20033;-87
2022/10/14 07:57:07;;;;;;;;;;;21.20;65.20;;;;;;4987773;28;19926;-89
2022/10/14 07:59:33;;;;;;;;;;;21.20;64.90;;;;;;4987416;28;19921;-88
2022/10/14 08:01:58;;;;;;;;;;;21.20;64.80;;;;;;4988673;28;20017;-87
2022/10/14 08:04:26;;;;;;;;;;;21.20;64.70;;;;;;4988321;28;19956;-89
2022/10/14 08:06:52;;;;;;;;;;;21.20;64.90;;;;;;4987964;28;19922;-89
2022/10/14 08:09:18;;;;;;;;;;;21.30;64.70;;;;;;4988516;28;20278;-88
2022/10/14 08:11:44;;;;;;;;;;;21.20;64.60;;;;;;4982394;28;20125;-88
2022/10/14 08:14:09;;;;;;;;;;;21.30;64.80;;;;;;4989989;28;19918;-86
2022/10/14 08:16:38;;;;;;;;;;;21.40;65.30;;;;;;4970146;28;20040;-87
2022/10/14 08:19:05;;;;;;;;;;;21.70;66.60;;;;;;4987190;28;19918;-86
2022/10/14 08:21:31;;;;;;;;;;;21.90;66.30;;;;;;4968731;28;19968;-88
2022/10/14 08:23:57;;;;;;;;;;;22.20;65.80;;;;;;4981912;28;19960;-86
2022/10/14 08:26:32;;;;;;;;;;;22.30;65.50;;;;;;4991837;28;19922;-87
2022/10/14 08:29:00;;;;;;;;;;;22.70;67.00;;;;;;4987977;28;20669;-88
2022/10/14 08:31:25;;;;;;;;;;;23.20;65.20;;;;;;4986769;28;19918;-88
2022/10/14 08:33:51;;;;;;;;;;;23.40;64.70;;;;;;4987184;28;20264;-89
2022/10/14 08:36:17;;;;;;;;;;;23.70;65.30;;;;;;4987891;28;20281;-89
2022/10/14 08:38:43;;;;;;;;;;;24.10;64.80;;;;;;4992310;28;20293;-87
2022/10/14 08:41:11;;;;;;;;;;;24.40;64.30;;;;;;4994129;28;19933;-88
2022/10/14 08:43:40;;;;;;;;;;;24.60;62.30;;;;;;4991362;28;20366;-88
2022/10/14 08:46:15;;;;;;;;;;;24.70;61.90;;;;;;4972978;28;20013;-86
2022/10/14 08:48:41;;;;;;;;;;;24.80;62.00;;;;;;4990491;28;19929;-85
2022/10/14 08:51:09;;;;;;;;;;;24.80;60.40;;;;;;4992042;28;19917;-89
2022/10/14 08:53:39;;;;;;;;;;;24.70;59.00;;;;;;4992673;28;20388;-89
2022/10/14 08:56:04;;;;;;;;;;;24.70;59.60;;;;;;4992390;28;19917;-87
2022/10/14 08:58:38;;;;;;;;;;;24.70;60.30;;;;;;4974542;28;20613;-88
2022/10/14 09:01:12;;;;;;;;;;;24.90;61.50;;;;;;4976260;28;19922;-89
2022/10/14 09:03:37;;;;;;;;;;;25.40;62.70;;;;;;4992158;28;19929;-88
2022/10/14 09:06:09;;;;;;;;;;;25.60;59.70;;;;;;4990605;28;19922;-87
2022/10/14 09:08:45;;;;;;;;;;;25.70;58.40;;;;;;4991300;28;19957;-89
2022/10/14 09:11:15;;;;;;;;;;;25.60;58.50;;;;;;4991166;28;19968;-88
2022/10/14 09:13:42;;;;;;;;;;;25.70;59.10;;;;;;4971543;28;19968;-88
2022/10/14 09:16:21;;;;;;;;;;;25.80;59.10;;;;;;4974687;28;20033;-89
2022/10/14 09:18:49;;;;;;;;;;;25.80;58.00;;;;;;4972508;28;19961;-88
2022/10/14 09:21:34;;;;;;;;;;;25.80;58.30;;;;;;4990898;28;19917;-88
2022/10/14 09:24:09;;;;;;;;;;;25.80;55.70;;;;;;4990800;28;19924;-88
2022/10/14 09:26:41;;;;;;;;;;;25.80;56.10;;;;;;4989512;28;19988;-88
2022/10/14 09:29:19;;;;;;;;;;;26.00;57.60;;;;;;4976698;28;19917;-87
2022/10/14 09:31:45;;;;;;;;;;;26.20;54.60;;;;;;5005784;28;20352;-88
2022/10/14 09:34:15;;;;;;;;;;;26.20;53.20;;;;;;4990849;28;20613;-90
2022/10/14 09:36:40;;;;;;;;;;;26.00;52.80;;;;;;4991088;28;20027;-88
2022/10/14 09:39:10;;;;;;;;;;;25.90;53.00;;;;;;4971848;28;19948;-87
2022/10/14 09:41:37;;;;;;;;;;;25.70;52.00;;;;;;4990814;28;20025;-88
2022/10/14 09:44:24;;;;;;;;;;;25.70;53.20;;;;;;4990125;28;19917;-89
2022/10/14 09:46:51;;;;;;;;;;;25.60;51.60;;;;;;4974230;28;19922;-88
2022/10/14 09:49:28;;;;;;;;;;;25.50;52.00;;;;;;4959817;28;19977;-89
2022/10/14 09:51:55;;;;;;;;;;;25.70;52.20;;;;;;4954189;28;19962;-88
2022/10/14 09:54:23;;;;;;;;;;;25.70;52.00;;;;;;4962817;28;19988;-85
2022/10/14 09:57:18;;;;;;;;;;;25.70;51.70;;;;;;4976698;28;19926;-86
2022/10/14 09:59:49;;;;;;;;;;;25.70;51.70;;;;;;4982327;28;19918;-87
2022/10/14 10:02:20;;;;;;;;;;;25.80;52.60;;;;;;4977064;28;20020;-87
2022/10/14 10:04:49;;;;;;;;;;;25.80;51.60;;;;;;4974553;28;19913;-87
2022/10/14 10:07:29;;;;;;;;;;;25.80;49.70;;;;;;4973967;28;19924;-86
2022/10/14 10:10:04;;;;;;;;;;;25.90;51.10;;;;;;4990393;28;20396;-86
2022/10/14 10:12:30;;;;;;;;;;;26.00;49.40;;;;;;4990558;28;19921;-89
2022/10/14 10:14:57;;;;;;;;;;;26.40;50.00;;;;;;4976395;28;19917;-89
2022/10/14 10:17:25;;;;;;;;;;;27.00;51.40;;;;;;4972451;28;19930;-89
2022/10/14 10:20:04;;;;;;;;;;;27.80;53.00;;;;;;4975783;28;19921;-89
2022/10/14 10:22:32;;;;;;;;;;;28.40;49.40;;;;;;4994811;28;19918;-88
2022/10/14 10:25:02;;;;;;;;;;;28.80;46.70;;;;;;4977316;28;19930;-90
2022/10/14 10:27:34;;;;;;;;;;;28.80;46.10;;;;;;4975892;28;20359;-90
2022/10/14 10:30:19;;;;;;;;;;;28.50;43.80;;;;;;4973465;28;20318;-87
2022/10/14 10:32:47;;;;;;;;;;;28.10;43.60;;;;;;4972195;28;19922;-89
2022/10/14 10:35:23;;;;;;;;;;;27.60;44.50;;;;;;4990888;28;19944;-90
2022/10/14 10:37:52;;;;;;;;;;;27.30;45.00;;;;;;4975137;28;19930;-89
2022/10/14 10:40:26;;;;;;;;;;;27.00;46.20;;;;;;4992574;28;19988;-89
2022/10/14 10:43:10;;;;;;;;;;;26.80;46.00;;;;;;4972583;28;20281;-85
2022/10/14 10:45:51;;;;;;;;;;;26.60;45.50;;;;;;4973100;28;19953;-85
2022/10/14 10:48:26;;;;;;;;;;;26.40;46.30;;;;;;4990492;28;19924;-89
2022/10/14 10:51:01;;;;;;;;;;;26.30;46.90;;;;;;4992843;28;19922;-86
2022/10/14 10:53:41;;;;;;;;;;;26.70;46.60;;;;;;4989710;28;20079;-87
2022/10/14 10:56:25;;;;;;;;;;;27.10;45.70;;;;;;4972034;28;19914;-87
2022/10/14 10:59:02;;;;;;;;;;;27.70;46.60;;;;;;4988772;28;20798;-87
2022/10/14 11:01:30;;;;;;;;;;;28.40;45.10;;;;;;4990003;28;20370;-85
2022/10/14 11:04:14;;;;;;;;;;;29.10;45.50;;;;;;4973725;28;20004;-89
2022/10/14 11:12:27;;;;;;;;;;;29.50;42.30;;;;;;5002707;28;19961;-84
2022/10/14 11:14:55;;;;;;;;;;;29.20;42.50;;;;;;4989565;28;19917;-85
2022/10/14 11:17:27;;;;;;;;;;;29.00;43.60;;;;;;4984937;28;19930;-86
2022/10/14 11:19:57;;;;;;;;;;;28.90;43.80;;;;;;4988954;28;19921;-87
2022/10/14 11:22:38;;;;;;;;;;;28.70;43.00;;;;;;4988283;28;19928;-89
2022/10/14 11:25:23;;;;;;;;;;;28.30;42.70;;;;;;5005591;28;20004;-88
2022/10/14 11:27:52;;;;;;;;;;;28.10;43.30;;;;;;4962960;28;19930;-89
2022/10/14 11:30:17;;;;;;;;;;;28.00;44.50;;;;;;4983101;28;20464;-87
2022/10/14 11:32:55;;;;;;;;;;;28.00;45.20;;;;;;4990351;28;20601;-88
2022/10/14 11:35:27;;;;;;;;;;;28.00;44.50;;;;;;4986089;28;19918;-85
2022/10/14 11:37:52;;;;;;;;;;;27.80;44.40;;;;;;4991237;28;20387;-88
2022/10/14 11:40:30;;;;;;;;;;;27.60;44.40;;;;;;4993126;28;19918;-86
2022/10/14 11:43:00;;;;;;;;;;;27.50;45.00;;;;;;4980176;28;19918;-88
2022/10/14 11:45:37;;;;;;;;;;;27.40;45.40;;;;;;4995183;28;19914;-89
2022/10/14 11:48:15;;;;;;;;;;;27.30;44.50;;;;;;4981397;28;19918;-90
2022/10/14 11:50:43;;;;;;;;;;;27.10;45.00;;;;;;4986466;28;19921;-88
2022/10/14 11:53:15;;;;;;;;;;;27.10;45.40;;;;;;4972150;28;19921;-85
2022/10/14 11:56:04;;;;;;;;;;;27.20;45.80;;;;;;4983144;28;19929;-85
2022/10/14 11:58:31;;;;;;;;;;;27.20;45.40;;;;;;4980882;28;20664;-88
2022/10/14 12:01:01;;;;;;;;;;;27.20;44.50;;;;;;4987518;28;20698;-90
2022/10/14 12:03:45;;;;;;;;;;;27.10;44.20;;;;;;4968316;28;19922;-87
2022/10/14 12:06:17;;;;;;;;;;;27.20;44.00;;;;;;4969608;28;19918;-85
2022/10/14 12:08:44;;;;;;;;;;;27.10;42.40;;;;;;4989748;28;19922;-86
2022/10/14 12:11:10;;;;;;;;;;;27.40;43.10;;;;;;4961824;28;19928;-87
2022/10/14 12:13:43;;;;;;;;;;;27.80;42.30;;;;;;4962796;28;19922;-88
2022/10/14 12:16:12;;;;;;;;;;;28.00;42.30;;;;;;4959128;28;19914;-86
2022/10/14 12:18:38;;;;;;;;;;;28.00;41.70;;;;;;4955327;28;19933;-91
2022/10/14 12:21:03;;;;;;;;;;;28.00;41.30;;;;;;4989454;28;20522;-91
2022/10/14 12:23:35;;;;;;;;;;;27.80;40.70;;;;;;4971091;28;20400;-90
2022/10/14 12:26:19;;;;;;;;;;;27.70;40.50;;;;;;4988070;28;19952;-88
2022/10/14 12:28:45;;;;;;;;;;;27.50;41.10;;;;;;4970297;28;19921;-87
2022/10/14 12:31:29;;;;;;;;;;;27.50;41.90;;;;;;4991406;28;19976;-86
2022/10/14 12:34:13;;;;;;;;;;;27.80;41.90;;;;;;4959608;28;20436;-89
2022/10/14 12:36:40;;;;;;;;;;;28.30;41.80;;;;;;4989028;28;19964;-86
2022/10/14 12:39:18;;;;;;;;;;;28.50;40.60;;;;;;4970908;28;19922;-88
2022/10/14 12:41:54;;;;;;;;;;;28.50;40.10;;;;;;4985574;28;20009;-90
2022/10/14 12:44:21;;;;;;;;;;;28.60;39.70;;;;;;4982708;28;19926;-90
2022/10/14 12:46:48;;;;;;;;;;;28.50;39.80;;;;;;4987637;28;19949;-88
2022/10/14 12:49:27;;;;;;;;;;;28.40;39.00;;;;;;4971418;28;19930;-90
2022/10/14 12:52:00;;;;;;;;;;;28.40;38.90;;;;;;4971983;28;19914;-88
2022/10/14 12:54:26;;;;;;;;;;;28.40;39.20;;;;;;4967893;28;19914;-86
2022/10/14 12:56:54;;;;;;;;;;;28.30;38.90;;;;;;4972452;28;20660;-89
2022/10/14 12:59:21;;;;;;;;;;;28.20;39.30;;;;;;4969230;28;19929;-87
2022/10/14 13:01:53;;;;;;;;;;;28.00;39.40;;;;;;4972995;28;19918;-88
2022/10/14 13:04:18;;;;;;;;;;;27.80;39.80;;;;;;4969644;28;20377;-87
2022/10/14 13:07:04;;;;;;;;;;;27.60;40.10;;;;;;4977699;28;20210;-89
2022/10/14 13:09:31;;;;;;;;;;;27.40;40.40;;;;;;5013988;28;19936;-89
2022/10/14 13:11:56;;;;;;;;;;;27.20;40.90;;;;;;4991991;28;19925;-87
2022/10/14 13:14:24;;;;;;;;;;;27.10;41.40;;;;;;5010291;28;20667;-90
2022/10/14 13:16:50;;;;;;;;;;;27.00;41.80;;;;;;4994288;28;19925;-90
2022/10/14 13:19:34;;;;;;;;;;;27.00;42.10;;;;;;4998409;28;20369;-88
2022/10/14 13:22:00;;;;;;;;;;;27.00;42.20;;;;;;4977273;28;20379;-90
2022/10/14 13:24:37;;;;;;;;;;;26.90;42.80;;;;;;5005697;28;19922;-90
2022/10/14 13:27:05;;;;;;;;;;;26.90;43.00;;;;;;5008999;28;19910;-89
2022/10/14 13:29:51;;;;;;;;;;;26.90;43.10;;;;;;5014735;28;19917;-90
2022/10/14 13:32:33;;;;;;;;;;;26.90;42.40;;;;;;4974090;28;19922;-88
2022/10/14 13:35:17;;;;;;;;;;;26.70;42.20;;;;;;4988605;28;19918;-90
2022/10/14 13:37:44;;;;;;;;;;;26.70;42.90;;;;;;4962534;28;19930;-86
2022/10/14 13:40:19;;;;;;;;;;;26.60;43.20;;;;;;4960322;28;19917;-91
2022/10/14 13:42:47;;;;;;;;;;;26.60;43.20;;;;;;4968349;28;20308;-87
2022/10/14 13:45:13;;;;;;;;;;;26.40;42.90;;;;;;4973420;28;20797;-90
2022/10/14 13:47:40;;;;;;;;;;;26.30;43.10;;;;;;4991622;28;19922;-90
2022/10/14 13:50:09;;;;;;;;;;;26.30;43.10;;;;;;4992099;28;20379;-89
2022/10/14 13:52:35;;;;;;;;;;;26.20;43.20;;;;;;4985348;28;19943;-88
2022/10/14 13:55:04;;;;;;;;;;;26.00;43.10;;;;;;4971693;28;19922;-85
2022/10/14 13:57:30;;;;;;;;;;;25.90;43.20;;;;;;4988825;28;19933;-90
2022/10/14 13:59:55;;;;;;;;;;;25.80;43.20;;;;;;4988898;28;19925;-86
2022/10/14 14:02:26;;;;;;;;;;;25.70;43.50;;;;;;4968427;28;19922;-86
2022/10/14 14:04:56;;;;;;;;;;;25.60;43.70;;;;;;4966737;28;19988;-86
2022/10/14 14:07:23;;;;;;;;;;;25.50;43.80;;;;;;4991656;28;19926;-88
2022/10/14 14:09:55;;;;;;;;;;;25.50;44.20;;;;;;4972008;28;19917;-89
2022/10/14 14:12:21;;;;;;;;;;;25.50;44.40;;;;;;4958825;28;19952;-89
2022/10/14 14:14:47;;;;;;;;;;;25.50;44.30;;;;;;4989040;28;20024;-88
2022/10/14 14:17:17;;;;;;;;;;;25.40;44.30;;;;;;4988374;28;19933;-87
2022/10/14 14:19:45;;;;;;;;;;;25.40;44.60;;;;;;4972470;28;20001;-86
2022/10/14 14:22:16;;;;;;;;;;;25.50;44.60;;;;;;4980486;28;19968;-87
2022/10/14 14:24:42;;;;;;;;;;;25.40;44.70;;;;;;4995210;28;19930;-87
2022/10/14 14:27:22;;;;;;;;;;;25.50;44.90;;;;;;4993417;28;19942;-89
2022/10/14 14:29:52;;;;;;;;;;;25.50;45.00;;;;;;4978012;28;19964;-86
2022/10/14 14:32:19;;;;;;;;;;;25.50;45.10;;;;;;4992960;28;19922;-88